createdAt,value
2022-11-10T00:01:10.405Z,78.86
2022-11-10T00:03:51.056Z,79.10
2022-11-10T00:06:31.369Z,79.15
2022-11-10T00:09:11.983Z,79.36
2022-11-10T00:11:52.667Z,79.11
2022-11-10T00:14:51.354Z,79.08
2022-11-10T00:17:32.770Z,79.06
2022-11-10T00:20:13.476Z,79.19
2022-11-10T00:22:55.579Z,79.28
2022-11-10T00:25:35.618Z,79.58
2022-11-10T00:28:16.323Z,79.83
2022-11-10T00:30:56.622Z,79.81
2022-11-10T00:33:43.741Z,79.95
2022-11-10T00:36:25.009Z,79.67
2022-11-10T00:39:05.949Z,79.83
2022-11-10T00:41:46.045Z,79.79
2022-11-10T00:44:26.724Z,79.69
2022-11-10T00:47:07.353Z,79.99
2022-11-10T00:49:47.655Z,80.23
2022-11-10T00:52:28.080Z,80.51
2022-11-10T00:55:09.150Z,80.48
2022-11-10T00:57:49.455Z,80.63
2022-11-10T01:00:30.138Z,80.43
2022-11-10T01:03:16.015Z,80.56
2022-11-10T01:05:56.569Z,80.40
2022-11-10T01:08:38.427Z,80.49
2022-11-10T01:11:27.147Z,80.08
2022-11-10T01:14:08.141Z,79.98
2022-11-10T01:16:48.659Z,80.09
2022-11-10T01:19:29.402Z,80.32
2022-11-10T01:22:09.590Z,80.10
2022-11-10T01:24:50.141Z,80.28
2022-11-10T01:27:30.776Z,80.63
2022-11-10T01:30:12.675Z,80.89
2022-11-10T01:32:55.210Z,80.28
2022-11-10T01:35:35.518Z,80.76
2022-11-10T01:38:15.969Z,81.42
2022-11-10T01:40:58.206Z,81.21
2022-11-10T01:43:39.208Z,81.40
2022-11-10T01:46:19.759Z,81.37
2022-11-10T01:49:04.391Z,81.49
2022-11-10T01:52:00.561Z,81.48
2022-11-10T01:54:48.796Z,81.76
2022-11-10T01:57:29.134Z,81.98
2022-11-10T02:00:10.742Z,81.59
2022-11-10T02:03:07.409Z,81.67
2022-11-10T02:05:49.278Z,82.19
2022-11-10T02:08:30.511Z,82.01
2022-11-10T02:11:12.478Z,82.26
2022-11-10T02:13:53.820Z,81.97
2022-11-10T02:16:34.930Z,82.42
2022-11-10T02:19:42.029Z,82.64
2022-11-10T02:22:22.520Z,82.76
2022-11-10T02:25:04.960Z,82.61
2022-11-10T02:27:45.410Z,82.59
2022-11-10T02:30:27.868Z,82.75
2022-11-10T02:33:08.421Z,82.92
2022-11-10T02:35:49.104Z,82.80
2022-11-10T02:38:29.296Z,82.72
2022-11-10T02:41:10.307Z,82.85
2022-11-10T02:43:53.308Z,83.22
2022-11-10T02:46:34.052Z,83.32
2022-11-10T02:49:14.304Z,82.81
2022-11-10T02:51:55.125Z,83.23
2022-11-10T02:54:35.293Z,83.06
2022-11-10T02:57:15.823Z,82.94
2022-11-10T02:59:56.394Z,82.72
2022-11-10T03:02:36.929Z,83.11
2022-11-10T03:05:17.598Z,82.49
2022-11-10T03:08:02.088Z,82.78
2022-11-10T03:10:42.556Z,82.60
2022-11-10T03:13:35.662Z,82.97
2022-11-10T03:16:26.802Z,82.76
2022-11-10T03:19:07.317Z,82.56
2022-11-10T03:21:47.608Z,82.75
2022-11-10T03:24:28.354Z,82.79
2022-11-10T03:27:08.627Z,82.61
2022-11-10T03:29:49.269Z,82.94
2022-11-10T03:32:29.971Z,83.21
2022-11-10T03:35:10.966Z,82.75
2022-11-10T03:37:51.324Z,82.79
2022-11-10T03:40:41.207Z,83.11
2022-11-10T03:43:32.036Z,83.16
2022-11-10T03:46:12.546Z,82.90
2022-11-10T03:48:53.781Z,83.12
2022-11-10T03:51:34.310Z,83.04
2022-11-10T03:54:14.628Z,83.33
2022-11-10T03:56:55.437Z,83.15
2022-11-10T03:59:36.450Z,83.36
2022-11-10T04:02:16.623Z,83.13
2022-11-10T04:05:15.654Z,83.10
2022-11-10T04:08:19.223Z,83.42
2022-11-10T04:10:59.863Z,83.53
2022-11-10T04:13:58.605Z,83.54
2022-11-10T04:16:38.943Z,83.61
2022-11-10T04:19:20.172Z,83.56
2022-11-10T04:22:00.399Z,83.49
2022-11-10T04:24:40.862Z,83.65
2022-11-10T04:27:21.458Z,83.75
2022-11-10T04:30:01.871Z,83.70
2022-11-10T04:32:42.292Z,83.56
2022-11-10T04:35:22.701Z,83.78
2022-11-10T04:38:03.175Z,83.72
2022-11-10T04:40:43.752Z,84.11
2022-11-10T04:43:27.014Z,83.97
2022-11-10T04:46:21.819Z,84.02
2022-11-10T04:49:03.018Z,83.76
2022-11-10T04:51:43.161Z,83.89
2022-11-10T04:54:23.504Z,83.85
2022-11-10T04:57:04.215Z,83.73
2022-11-10T04:59:44.335Z,83.69
2022-11-10T05:02:24.746Z,83.52
2022-11-10T05:05:06.314Z,83.50
2022-11-10T05:07:48.877Z,83.47
2022-11-10T05:10:29.086Z,83.58
2022-11-10T05:13:10.383Z,83.81
2022-11-10T05:15:51.818Z,83.68
2022-11-10T05:18:32.123Z,83.82
2022-11-10T05:21:12.502Z,83.67
2022-11-10T05:23:52.987Z,83.63
2022-11-10T05:26:33.394Z,83.44
2022-11-10T05:29:13.869Z,83.30
2022-11-10T05:31:54.512Z,83.43
2022-11-10T05:34:35.284Z,83.36
2022-11-10T05:37:15.634Z,83.38
2022-11-10T05:39:56.051Z,83.24
2022-11-10T05:42:44.962Z,83.38
2022-11-10T05:45:28.358Z,83.57
2022-11-10T05:48:09.047Z,83.61
2022-11-10T05:50:49.822Z,83.51
2022-11-10T05:53:30.466Z,83.68
2022-11-10T05:56:11.261Z,83.68
2022-11-10T05:58:51.415Z,83.90
2022-11-10T06:01:31.954Z,83.81
2022-11-10T06:04:12.570Z,83.98
2022-11-10T06:06:53.198Z,84.23
2022-11-10T06:09:34.530Z,84.32
2022-11-10T06:12:15.690Z,84.58
2022-11-10T06:14:58.941Z,84.72
2022-11-10T06:17:39.462Z,84.48
2022-11-10T06:20:20.217Z,84.62
2022-11-10T06:23:07.211Z,84.78
2022-11-10T06:25:47.880Z,85.10
2022-11-10T06:28:28.266Z,85.10
2022-11-10T06:31:08.894Z,85.02
2022-11-10T06:33:49.278Z,85.11
2022-11-10T06:36:29.469Z,85.50
2022-11-10T06:39:10.257Z,85.26
2022-11-10T06:41:51.000Z,85.51
2022-11-10T06:44:31.330Z,85.21
2022-11-10T06:47:11.934Z,85.55
2022-11-10T06:49:52.609Z,85.42
2022-11-10T06:52:32.772Z,85.35
2022-11-10T06:55:13.605Z,85.28
2022-11-10T06:57:54.401Z,85.37
2022-11-10T07:00:34.797Z,85.42
2022-11-10T07:03:16.245Z,85.65
2022-11-10T07:05:58.283Z,85.46
2022-11-10T07:08:38.615Z,85.51
2022-11-10T07:11:19.033Z,85.33
2022-11-10T07:13:59.490Z,85.43
2022-11-10T07:16:40.223Z,85.66
2022-11-10T07:19:20.487Z,85.57
2022-11-10T07:22:02.670Z,85.56
2022-11-10T07:24:45.793Z,85.55
2022-11-10T07:27:26.123Z,85.85
2022-11-10T07:30:07.776Z,85.71
2022-11-10T07:33:00.598Z,85.69
2022-11-10T07:35:42.056Z,85.70
2022-11-10T07:38:22.741Z,85.61
2022-11-10T07:41:04.082Z,85.33
2022-11-10T07:43:44.488Z,85.55
2022-11-10T07:46:25.730Z,85.83
2022-11-10T07:49:06.510Z,85.40
2022-11-10T07:51:46.868Z,85.68
2022-11-10T07:54:27.575Z,85.38
2022-11-10T07:57:08.178Z,85.50
2022-11-10T07:59:48.462Z,85.00
2022-11-10T08:02:28.990Z,85.04
2022-11-10T08:05:09.650Z,84.87
2022-11-10T08:07:49.845Z,84.61
2022-11-10T08:10:32.113Z,84.61
2022-11-10T08:13:13.757Z,84.34
2022-11-10T08:15:54.231Z,84.23
2022-11-10T08:18:35.670Z,84.22
2022-11-10T08:21:16.312Z,84.04
2022-11-10T08:23:56.847Z,83.85
2022-11-10T08:26:37.538Z,83.80
2022-11-10T08:29:18.686Z,83.15
2022-11-10T08:31:59.292Z,83.22
2022-11-10T08:34:39.659Z,82.93
2022-11-10T08:37:20.502Z,82.46
2022-11-10T08:40:00.715Z,82.01
2022-11-10T08:42:41.330Z,81.76
2022-11-10T08:45:21.508Z,81.96
2022-11-10T08:48:12.981Z,81.93
2022-11-10T08:50:54.203Z,81.31
2022-11-10T08:53:34.441Z,81.43
2022-11-10T08:56:15.005Z,81.20
2022-11-10T08:58:55.553Z,81.09
2022-11-10T09:01:35.722Z,80.60
2022-11-10T09:04:19.371Z,80.47
2022-11-10T09:07:00.361Z,79.92
2022-11-10T09:09:41.160Z,79.96
2022-11-10T09:12:21.350Z,79.77
2022-11-10T09:15:01.916Z,79.39
2022-11-10T09:17:42.852Z,78.88
2022-11-10T09:20:23.400Z,78.81
2022-11-10T09:23:16.541Z,78.48
2022-11-10T09:25:57.053Z,78.29
2022-11-10T09:28:37.720Z,78.39
2022-11-10T09:31:18.577Z,78.08
2022-11-10T09:33:59.424Z,77.68
2022-11-10T09:36:40.471Z,76.89
2022-11-10T09:39:24.057Z,76.87
2022-11-10T09:42:19.913Z,76.76
2022-11-10T09:45:20.767Z,76.30
2022-11-10T09:48:15.032Z,75.95
2022-11-10T09:51:13.202Z,75.95
2022-11-10T09:54:19.535Z,75.77
2022-11-10T09:57:04.998Z,75.62
2022-11-10T09:59:45.655Z,76.03
2022-11-10T10:02:42.175Z,75.82
2022-11-10T10:06:09.249Z,75.59
2022-11-10T10:09:00.611Z,75.65
2022-11-10T10:12:04.642Z,75.18
2022-11-10T10:15:03.353Z,74.73
2022-11-10T10:17:46.734Z,74.70
2022-11-10T10:20:50.287Z,74.45
2022-11-10T10:24:07.214Z,73.65
2022-11-10T10:26:45.287Z,73.19
2022-11-10T10:29:39.704Z,73.06
2022-11-10T10:32:23.814Z,72.79
2022-11-10T10:35:04.895Z,72.48
2022-11-10T10:37:51.539Z,72.66
2022-11-10T10:40:32.292Z,72.21
2022-11-10T10:43:12.783Z,71.71
2022-11-10T10:46:12.080Z,71.52
2022-11-10T10:49:31.716Z,71.34
2022-11-10T10:52:16.604Z,71.53
2022-11-10T10:55:02.445Z,70.82
2022-11-10T10:57:57.052Z,70.87
2022-11-10T11:00:47.159Z,70.20
2022-11-10T11:03:30.700Z,69.80
2022-11-10T11:06:17.039Z,69.19
2022-11-10T11:09:24.058Z,68.92
2022-11-10T11:12:13.482Z,68.67
2022-11-10T11:15:18.762Z,68.50
2022-11-10T11:18:02.829Z,68.89
2022-11-10T11:20:58.205Z,68.19
2022-11-10T11:24:05.559Z,68.05
2022-11-10T11:26:56.080Z,67.60
2022-11-10T11:30:05.637Z,67.32
2022-11-10T11:33:21.423Z,67.39
2022-11-10T11:36:39.106Z,67.69
2022-11-10T11:40:01.391Z,67.79
2022-11-10T11:43:18.710Z,67.14
2022-11-10T11:46:57.825Z,66.94
2022-11-10T11:50:31.300Z,65.93
2022-11-10T11:53:46.725Z,65.21
2022-11-10T11:56:35.743Z,64.92
2022-11-10T11:59:53.876Z,65.00
2022-11-10T12:03:26.902Z,64.81
2022-11-10T12:06:52.335Z,64.34
2022-11-10T12:09:44.321Z,64.61
2022-11-10T12:13:10.836Z,64.63
2022-11-10T12:16:20.202Z,63.87
2022-11-10T12:19:23.607Z,63.88
2022-11-10T12:22:24.001Z,63.37
2022-11-10T12:25:24.985Z,63.31
2022-11-10T12:28:24.207Z,62.96
2022-11-10T12:31:13.631Z,62.33
2022-11-10T12:34:21.241Z,63.08
2022-11-10T12:37:07.717Z,62.61
2022-11-10T12:40:16.080Z,62.47
2022-11-10T12:43:06.842Z,62.34
2022-11-10T12:45:57.033Z,61.76
2022-11-10T12:49:06.017Z,60.45
2022-11-10T12:51:49.379Z,60.90
2022-11-10T12:54:30.398Z,61.15
2022-11-10T12:57:24.935Z,60.78
2022-11-10T13:00:27.811Z,60.71
2022-11-10T13:03:36.801Z,60.21
2022-11-10T13:06:28.980Z,60.94
2022-11-10T13:09:36.540Z,60.03
2022-11-10T13:12:25.980Z,59.13
2022-11-10T13:15:44.180Z,59.23
2022-11-10T13:18:30.662Z,59.04
2022-11-10T13:21:11.589Z,58.96
2022-11-10T13:23:51.953Z,59.18
2022-11-10T13:26:44.891Z,58.84
2022-11-10T13:29:43.977Z,59.16
2022-11-10T13:32:35.130Z,59.26
2022-11-10T13:35:28.103Z,59.21
2022-11-10T13:38:34.552Z,59.58
2022-11-10T13:41:17.925Z,59.82
2022-11-10T13:43:58.753Z,59.91
2022-11-10T13:47:10.090Z,59.73
2022-11-10T13:50:12.178Z,59.64
2022-11-10T13:53:15.133Z,59.30
2022-11-10T13:56:37.108Z,59.39
2022-11-10T13:59:26.471Z,59.58
2022-11-10T14:02:34.923Z,60.00
2022-11-10T14:06:08.707Z,60.00
2022-11-10T14:09:00.365Z,60.12
2022-11-10T14:11:56.764Z,60.42
2022-11-10T14:14:53.206Z,60.39
2022-11-10T14:17:50.591Z,60.54
2022-11-10T14:20:43.681Z,60.90
2022-11-10T14:24:10.182Z,60.77
2022-11-10T14:27:00.030Z,60.91
2022-11-10T14:29:42.307Z,61.23
2022-11-10T14:32:25.113Z,61.53
2022-11-10T14:35:07.006Z,61.70
2022-11-10T14:37:47.548Z,61.34
2022-11-10T14:40:28.996Z,61.24
2022-11-10T14:43:37.664Z,61.53
2022-11-10T14:46:24.946Z,61.43
2022-11-10T14:49:05.696Z,61.62
2022-11-10T14:51:46.436Z,61.59
2022-11-10T14:54:29.423Z,61.80
2022-11-10T14:57:18.466Z,61.96
2022-11-10T14:59:59.778Z,61.99
2022-11-10T15:02:41.324Z,61.95
2022-11-10T15:05:22.464Z,61.83
2022-11-10T15:08:04.982Z,62.09
2022-11-10T15:10:53.358Z,62.33
2022-11-10T15:13:39.321Z,62.36
2022-11-10T15:16:30.932Z,62.39
2022-11-10T15:19:28.283Z,62.47
2022-11-10T15:22:41.227Z,62.63
2022-11-10T15:25:39.292Z,62.86
2022-11-10T15:28:30.748Z,63.11
2022-11-10T15:31:32.021Z,63.27
2022-11-10T15:34:42.827Z,63.44
2022-11-10T15:37:31.027Z,63.65
2022-11-10T15:40:31.661Z,63.70
2022-11-10T15:43:22.996Z,64.11
2022-11-10T15:46:17.768Z,64.21
2022-11-10T15:49:00.430Z,64.65
2022-11-10T15:51:41.097Z,64.79
2022-11-10T15:54:25.856Z,65.02
2022-11-10T15:57:13.178Z,65.20
2022-11-10T15:59:53.680Z,65.18
2022-11-10T16:02:34.484Z,65.47
2022-11-10T16:05:14.857Z,65.64
2022-11-10T16:07:55.344Z,66.02
2022-11-10T16:10:35.854Z,66.08
2022-11-10T16:13:35.618Z,66.25
2022-11-10T16:16:18.734Z,66.23
2022-11-10T16:18:59.062Z,66.22
2022-11-10T16:21:39.782Z,66.48
2022-11-10T16:24:20.491Z,66.15
2022-11-10T16:27:00.983Z,66.49
2022-11-10T16:29:43.303Z,66.49
2022-11-10T16:32:23.548Z,66.54
2022-11-10T16:35:04.656Z,66.60
2022-11-10T16:37:45.128Z,67.19
2022-11-10T16:40:25.527Z,67.69
2022-11-10T16:43:17.051Z,67.88
2022-11-10T16:46:02.514Z,68.43
2022-11-10T16:48:46.511Z,68.85
2022-11-10T16:51:47.228Z,68.78
2022-11-10T16:54:28.937Z,68.92
2022-11-10T16:57:17.551Z,69.19
2022-11-10T16:59:57.946Z,69.02
2022-11-10T17:02:39.845Z,69.31
2022-11-10T17:05:20.624Z,69.33
2022-11-10T17:08:03.858Z,69.65
2022-11-10T17:10:44.217Z,69.79
2022-11-10T17:13:25.986Z,69.67
2022-11-10T17:16:32.649Z,69.81
2022-11-10T17:19:25.798Z,69.86
2022-11-10T17:22:06.736Z,69.84
2022-11-10T17:24:53.781Z,70.04
2022-11-10T17:27:37.890Z,70.56
2022-11-10T17:30:20.165Z,70.25
2022-11-10T17:33:05.478Z,70.60
2022-11-10T17:35:50.590Z,70.45
2022-11-10T17:38:33.755Z,70.89
2022-11-10T17:41:19.742Z,70.97
2022-11-10T17:44:00.017Z,71.06
2022-11-10T17:46:41.683Z,71.49
2022-11-10T17:49:22.019Z,71.78
2022-11-10T17:52:03.256Z,71.51
2022-11-10T17:54:45.798Z,71.83
2022-11-10T17:57:26.240Z,72.02
2022-11-10T18:00:08.584Z,71.91
2022-11-10T18:02:55.330Z,71.62
2022-11-10T18:05:38.522Z,71.50
2022-11-10T18:08:19.465Z,71.78
2022-11-10T18:11:01.097Z,71.59
2022-11-10T18:13:43.650Z,71.94
2022-11-10T18:16:24.138Z,71.86
2022-11-10T18:19:05.769Z,72.08
2022-11-10T18:21:46.158Z,72.37
2022-11-10T18:24:26.347Z,72.22
2022-11-10T18:27:07.017Z,72.22
2022-11-10T18:29:47.545Z,72.27
2022-11-10T18:32:28.211Z,72.40
2022-11-10T18:35:08.766Z,72.08
2022-11-10T18:37:49.310Z,72.68
2022-11-10T18:40:29.799Z,72.50
2022-11-10T18:43:10.186Z,72.85
2022-11-10T18:45:54.589Z,73.01
2022-11-10T18:48:37.379Z,73.47
2022-11-10T18:51:18.092Z,73.91
2022-11-10T18:53:58.819Z,73.89
2022-11-10T18:56:39.192Z,73.81
2022-11-10T18:59:20.005Z,74.07
2022-11-10T19:02:00.292Z,74.38
2022-11-10T19:04:41.030Z,74.56
2022-11-10T19:07:21.714Z,74.42
2022-11-10T19:10:01.944Z,74.66
2022-11-10T19:12:42.541Z,74.92
2022-11-10T19:15:23.183Z,74.72
2022-11-10T19:18:03.583Z,74.75
2022-11-10T19:20:44.030Z,75.01
2022-11-10T19:23:24.896Z,75.09
2022-11-10T19:26:22.549Z,75.44
2022-11-10T19:29:04.746Z,75.06
2022-11-10T19:31:46.461Z,74.84
2022-11-10T19:34:26.834Z,75.14
2022-11-10T19:37:07.447Z,75.26
2022-11-10T19:39:47.946Z,75.57
2022-11-10T19:42:28.439Z,75.89
2022-11-10T19:45:09.594Z,76.01
2022-11-10T19:47:49.764Z,75.97
2022-11-10T19:50:30.513Z,76.21
2022-11-10T19:53:11.030Z,76.08
2022-11-10T19:55:51.903Z,75.73
2022-11-10T19:58:35.689Z,76.03
2022-11-10T20:01:18.130Z,76.07
2022-11-10T20:04:00.875Z,76.11
2022-11-10T20:06:41.053Z,76.06
2022-11-10T20:09:21.617Z,76.38
2022-11-10T20:12:01.863Z,76.02
2022-11-10T20:14:42.443Z,76.29
2022-11-10T20:17:22.994Z,76.26
2022-11-10T20:20:04.238Z,76.59
2022-11-10T20:22:45.031Z,76.60
2022-11-10T20:25:25.434Z,76.40
2022-11-10T20:28:07.112Z,76.79
2022-11-10T20:30:47.602Z,76.62
2022-11-10T20:33:30.218Z,76.81
2022-11-10T20:36:20.331Z,76.69
2022-11-10T20:39:00.937Z,76.67
2022-11-10T20:41:41.396Z,76.86
2022-11-10T20:44:22.008Z,76.56
2022-11-10T20:47:02.464Z,77.04
2022-11-10T20:49:43.197Z,77.34
2022-11-10T20:52:24.731Z,77.20
2022-11-10T20:55:06.185Z,77.37
2022-11-10T20:57:46.761Z,77.01
2022-11-10T21:00:27.383Z,77.09
2022-11-10T21:03:08.198Z,77.40
2022-11-10T21:05:56.349Z,77.34
2022-11-10T21:08:37.692Z,77.23
2022-11-10T21:11:38.240Z,77.71
2022-11-10T21:14:19.190Z,77.64
2022-11-10T21:16:59.790Z,78.02
2022-11-10T21:19:40.209Z,77.83
2022-11-10T21:22:20.799Z,77.82
2022-11-10T21:25:01.665Z,77.97
2022-11-10T21:27:41.961Z,77.91
2022-11-10T21:30:25.073Z,78.02
2022-11-10T21:33:07.122Z,78.34
2022-11-10T21:35:47.723Z,78.28
2022-11-10T21:38:27.938Z,78.23
2022-11-10T21:41:08.603Z,78.45
2022-11-10T21:43:49.191Z,78.58
2022-11-10T21:46:29.813Z,78.45
2022-11-10T21:49:10.162Z,78.30
2022-11-10T21:51:52.827Z,78.52
2022-11-10T21:54:33.358Z,79.13
2022-11-10T21:57:13.759Z,78.81
2022-11-10T21:59:54.540Z,78.99
2022-11-10T22:02:34.916Z,78.82
2022-11-10T22:05:15.657Z,78.58
2022-11-10T22:07:56.179Z,78.92
2022-11-10T22:10:56.164Z,78.98
2022-11-10T22:13:54.974Z,78.96
2022-11-10T22:17:03.470Z,78.92
2022-11-10T22:19:44.612Z,79.06
2022-11-10T22:22:24.817Z,79.01
2022-11-10T22:25:06.193Z,78.90
2022-11-10T22:27:46.993Z,78.60
2022-11-10T22:30:27.569Z,78.64
2022-11-10T22:33:27.015Z,78.32
2022-11-10T22:36:12.174Z,78.48
2022-11-10T22:38:52.439Z,78.60
2022-11-10T22:41:51.393Z,78.16
2022-11-10T22:44:31.906Z,78.52
2022-11-10T22:47:12.234Z,78.24
2022-11-10T22:49:53.419Z,78.01
2022-11-10T22:52:33.673Z,78.11
2022-11-10T22:55:14.351Z,78.16
2022-11-10T22:57:55.018Z,78.12
2022-11-10T23:00:35.567Z,78.24
2022-11-10T23:03:16.089Z,78.00
2022-11-10T23:05:56.724Z,78.32
2022-11-10T23:08:37.646Z,77.74
2022-11-10T23:11:22.664Z,78.12
2022-11-10T23:14:03.153Z,78.22
2022-11-10T23:16:43.649Z,78.14
2022-11-10T23:19:24.204Z,78.35
2022-11-10T23:22:04.631Z,78.60
2022-11-10T23:24:45.306Z,78.55
2022-11-10T23:27:25.835Z,78.43
2022-11-10T23:30:06.930Z,78.60
2022-11-10T23:32:47.148Z,78.29
2022-11-10T23:35:27.504Z,78.70
2022-11-10T23:38:08.099Z,78.53
2022-11-10T23:40:48.511Z,78.64
2022-11-10T23:43:30.153Z,78.46
2022-11-10T23:46:11.916Z,78.76
2022-11-10T23:48:52.476Z,78.90
2022-11-10T23:51:32.859Z,78.72
2022-11-10T23:54:13.258Z,78.68
2022-11-10T23:56:56.488Z,78.63
2022-11-10T23:59:37.014Z,79.09
